Time;durP1;ratioP1;P1;durP2;ratioP2;P2;SDS_P1;SDS_P2;PMS_P1;PMS_P2;Temp;Humidity;BMP_temperature;BMP_pressure;BME280_temperature;BME280_humidity;BME280_pressure;Samples;Min_cycle;Max_cycle;Signal;HPM_P1;HPM_P2
2022/04/21 00:00:44;;;;;;;47.75;28.70;;;;;;;2.40;67.32;96758.72;1648902;87;25443;-72
2022/04/21 00:03:11;;;;;;;47.90;27.00;;;;;;;2.36;67.44;96754.73;1648450;87;27592;-72
2022/04/21 00:05:37;;;;;;;49.93;28.95;;;;;;;2.35;67.31;96756.23;1648665;87;25699;-73
2022/04/21 00:08:04;;;;;;;48.23;29.30;;;;;;;2.21;67.17;96753.81;1648554;87;25775;-72
2022/04/21 00:10:31;;;;;;;51.05;30.40;;;;;;;2.02;67.38;96744.45;1648841;87;25740;-72
2022/04/21 00:12:59;;;;;;;50.58;29.32;;;;;;;2.00;67.65;96746.95;1648743;87;25828;-72
2022/04/21 00:15:26;;;;;;;53.17;30.35;;;;;;;2.04;67.70;96750.94;1648799;87;27375;-72
2022/04/21 00:17:53;;;;;;;48.98;29.10;;;;;;;1.92;67.53;96745.17;1648547;87;25275;-72
2022/04/21 00:20:19;;;;;;;49.20;29.90;;;;;;;1.85;67.69;96752.67;1648708;87;25679;-73
2022/04/21 00:25:21;;;;;;;50.38;30.20;;;;;;;1.74;67.74;96757.37;1601506;89;25774;-72
2022/04/21 00:27:48;;;;;;;53.83;30.37;;;;;;;1.69;67.90;96754.37;1601732;89;27447;-71
2022/04/21 00:30:17;;;;;;;51.15;30.55;;;;;;;1.68;67.96;96751.92;1601737;89;25811;-72
2022/04/21 00:32:44;;;;;;;52.40;29.72;;;;;;;1.67;67.96;96757.73;1601760;89;25817;-73
2022/04/21 00:35:13;;;;;;;48.17;29.98;;;;;;;1.63;67.95;96760.41;1601566;89;26162;-74
2022/04/21 00:37:52;;;;;;;51.45;30.32;;;;;;;1.63;68.10;96760.41;1601595;89;25749;-73
2022/04/21 00:40:22;;;;;;;50.70;29.52;;;;;;;1.63;68.10;96765.72;1616981;85;28123;-72
2022/04/21 00:42:49;;;;;;;53.08;30.37;;;;;;;1.58;68.15;96767.22;1637840;87;25865;-72
2022/04/21 00:45:16;;;;;;;55.80;31.73;;;;;;;1.57;68.31;96767.72;1638260;87;25807;-72
2022/04/21 00:47:45;;;;;;;54.50;31.68;;;;;;;1.57;68.44;96767.72;1638329;87;25907;-73
2022/04/21 00:50:24;;;;;;;63.10;32.60;;;;;;;1.57;68.54;96769.58;1638086;87;25743;-72
2022/04/21 00:52:53;;;;;;;51.60;30.77;;;;;;;1.58;68.63;96768.55;1638202;87;28324;-72
2022/04/21 00:55:21;;;;;;;52.80;30.52;;;;;;;1.59;68.72;96765.73;1638174;87;25864;-73
2022/04/21 00:57:50;;;;;;;56.90;33.08;;;;;;;1.62;68.78;96767.22;1638135;86;25891;-72
2022/04/21 01:00:17;;;;;;;60.28;31.87;;;;;;;1.64;68.89;96768.72;1638151;87;25855;-71
2022/04/21 01:07:50;;;;;;;51.33;30.60;;;;;;;1.69;69.06;96766.35;1572014;89;25963;-73
2022/04/21 01:10:17;;;;;;;56.77;32.15;;;;;;;1.66;69.07;96768.05;1572177;91;25830;-72
2022/04/21 01:12:43;;;;;;;52.60;30.65;;;;;;;1.68;69.09;96766.05;1572292;89;25861;-72
2022/04/21 01:15:11;;;;;;;54.13;34.27;;;;;;;1.71;69.17;96767.52;1572133;89;25964;-72
2022/04/21 01:17:39;;;;;;;55.33;32.17;;;;;;;1.73;69.12;96767.68;1572078;91;27391;-72
2022/04/21 01:20:09;;;;;;;53.20;32.70;;;;;;;1.72;69.16;96763.86;1572065;89;25695;-73
2022/04/21 01:22:36;;;;;;;53.65;31.80;;;;;;;1.72;69.22;96768.67;1572197;89;25879;-72
2022/04/21 01:25:03;;;;;;;56.02;32.45;;;;;;;1.74;69.28;96777.33;1572178;91;26378;-72
2022/04/21 01:27:33;;;;;;;57.50;32.20;;;;;;;1.76;69.37;96776.66;1572210;91;25909;-72
2022/04/21 01:30:04;;;;;;;58.23;34.48;;;;;;;1.79;69.43;96778.16;1572170;91;27525;-71
2022/04/21 01:32:35;;;;;;;58.58;33.42;;;;;;;1.80;69.43;96774.48;1572039;91;25807;-72
2022/04/21 01:35:00;;;;;;;52.80;33.85;;;;;;;1.81;69.46;96771.63;1569805;90;25822;-72
2022/04/21 01:42:56;;;;;;;56.68;33.33;;;;;;;1.82;69.47;96771.13;1594028;89;28469;-72
2022/04/21 01:45:23;;;;;;;56.77;33.38;;;;;;;1.80;69.41;96772.66;1587440;88;25599;-73
2022/04/21 01:47:50;;;;;;;61.37;34.33;;;;;;;1.80;69.49;96771.83;1580472;90;25825;-72
2022/04/21 01:50:16;;;;;;;55.67;34.00;;;;;;;1.78;69.55;96765.34;1580501;90;25746;-71
2022/04/21 01:52:43;;;;;;;63.25;35.70;;;;;;;1.77;69.59;96771.67;1580503;89;25551;-72
2022/04/21 01:55:11;;;;;;;61.25;35.40;;;;;;;1.78;69.71;96772.50;1580564;90;27462;-71
2022/04/21 01:57:38;;;;;;;62.53;36.30;;;;;;;1.74;69.72;96771.17;1580432;90;25760;-72
2022/04/21 02:00:07;;;;;;;61.58;34.90;;;;;;;1.74;69.75;96773.83;1580567;90;25862;-72
2022/04/21 02:02:34;;;;;;;61.70;35.17;;;;;;;1.74;69.88;96768.52;1682751;81;25779;-72
2022/04/21 02:05:02;;;;;;;59.63;33.23;;;;;;;1.74;69.96;96760.53;1724771;83;25714;-73
2022/04/21 02:07:29;;;;;;;61.50;35.43;;;;;;;1.73;69.96;96761.53;1724679;81;28207;-72
2022/04/21 02:09:56;;;;;;;60.28;34.92;;;;;;;1.73;70.01;96756.20;1724610;81;25489;-71
2022/04/21 02:12:24;;;;;;;54.50;32.17;;;;;;;1.71;70.04;96756.88;1724185;83;25731;-72
2022/04/21 02:14:53;;;;;;;53.70;32.65;;;;;;;1.69;70.03;96741.61;1724535;83;26491;-72
2022/04/21 02:17:20;;;;;;;55.50;32.38;;;;;;;1.66;70.01;96750.75;1724503;83;25947;-73
2022/04/21 02:19:47;;;;;;;53.13;32.20;;;;;;;1.59;70.06;96748.44;1724665;81;26803;-72
2022/04/21 02:22:14;;;;;;;57.90;31.80;;;;;;;1.59;70.19;96751.59;1724545;83;25804;-72
2022/04/21 02:24:40;;;;;;;55.25;32.13;;;;;;;1.60;70.20;96755.41;1724373;82;25705;-72
2022/04/21 02:27:08;;;;;;;51.83;30.45;;;;;;;1.61;70.21;96755.75;1724687;81;26505;-71
2022/04/21 02:29:34;;;;;;;55.78;32.85;;;;;;;1.61;70.26;96761.07;1724687;82;25826;-73
2022/04/21 02:32:01;;;;;;;55.98;31.77;;;;;;;1.65;70.28;96762.89;1724625;83;28426;-71
2022/04/21 02:34:29;;;;;;;47.95;30.80;;;;;;;1.64;70.29;96762.06;1724448;83;25958;-72
2022/04/21 02:36:56;;;;;;;54.48;31.90;;;;;;;1.63;70.29;96758.24;1724553;83;25883;-72
2022/04/21 02:39:24;;;;;;;56.88;32.75;;;;;;;1.60;70.33;96759.41;1724481;81;25808;-72
2022/04/21 02:41:51;;;;;;;52.05;32.50;;;;;;;1.58;70.37;96749.94;1724332;82;25800;-72
2022/04/21 02:44:18;;;;;;;47.17;29.67;;;;;;;1.57;70.40;96755.75;1724517;83;27363;-72
2022/04/21 02:46:45;;;;;;;47.15;29.72;;;;;;;1.57;70.42;96752.30;1724630;82;25658;-73
2022/04/21 02:49:11;;;;;;;47.65;29.10;;;;;;;1.50;70.34;96760.11;1724402;83;25690;-73
2022/04/21 02:51:38;;;;;;;51.90;30.43;;;;;;;1.43;70.37;96759.97;1724681;81;25852;-72
2022/04/21 02:59:35;;;;;;;50.55;29.45;;;;;;;1.39;70.53;96773.77;1724242;82;25760;-71
2022/04/21 03:02:01;;;;;;;52.30;30.90;;;;;;;1.37;70.63;96775.27;1724650;83;25662;-72
2022/04/21 03:04:28;;;;;;;51.60;30.60;;;;;;;1.34;70.67;96757.48;1724462;83;25767;-72
2022/04/21 03:06:55;;;;;;;55.23;32.28;;;;;;;1.33;70.71;96745.18;1724377;81;25488;-71
2022/04/21 03:09:21;;;;;;;45.67;29.27;;;;;;;1.31;70.67;96743.22;1724457;81;27929;-72
2022/04/21 03:11:48;;;;;;;45.50;27.70;;;;;;;1.25;70.66;96738.56;1724544;81;25649;-72
2022/04/21 03:14:18;;;;;;;42.65;26.05;;;;;;;1.15;70.52;96741.91;1724702;81;25677;-72
2022/04/21 03:16:44;;;;;;;43.25;26.68;;;;;;;1.06;70.58;96737.11;1724836;83;25759;-70
2022/04/21 03:19:12;;;;;;;43.30;26.37;;;;;;;0.95;70.69;96734.30;1724491;83;25710;-72
2022/04/21 03:24:23;;;;;;;49.10;29.37;;;;;;;0.87;70.82;96734.30;1724290;83;25681;-72
2022/04/21 03:26:52;;;;;;;49.90;30.37;;;;;;;0.83;70.98;96730.33;1724638;83;25797;-72
2022/04/21 03:29:20;;;;;;;45.25;28.95;;;;;;;0.85;71.03;96732.30;1724557;82;25780;-72
2022/04/21 03:31:48;;;;;;;43.95;27.10;;;;;;;0.87;70.99;96735.62;1724581;82;25540;-72
2022/04/21 03:34:18;;;;;;;46.85;27.90;;;;;;;0.86;70.93;96739.77;1724578;81;27554;-72
2022/04/21 03:36:49;;;;;;;45.43;28.90;;;;;;;0.83;70.85;96738.80;1724385;81;25776;-71
2022/04/21 03:39:21;;;;;;;49.80;30.57;;;;;;;0.80;70.81;96743.94;1724696;81;25830;-73
2022/04/21 03:41:53;;;;;;;46.20;29.82;;;;;;;0.75;70.95;96746.26;1714270;82;26491;-72
2022/04/21 03:44:23;;;;;;;50.15;30.97;;;;;;;0.74;71.05;96752.56;1699463;84;25760;-72
2022/04/21 03:46:50;;;;;;;46.98;28.95;;;;;;;0.74;71.02;96747.25;1699441;84;27423;-72
2022/04/21 03:49:17;;;;;;;44.88;28.85;;;;;;;0.71;71.01;96750.26;1699373;84;25777;-72
2022/04/21 03:51:43;;;;;;;45.75;29.00;;;;;;;0.66;71.02;96744.60;1699572;84;25758;-72
2022/04/21 03:54:10;;;;;;;50.83;32.10;;;;;;;0.62;71.01;96744.09;1699661;84;25757;-73
2022/04/21 03:56:37;;;;;;;54.50;32.42;;;;;;;0.59;71.16;96747.60;1699490;84;25737;-71
2022/04/21 03:59:04;;;;;;;46.18;29.95;;;;;;;0.58;71.31;96747.27;1699452;84;27454;-72
2022/04/21 04:01:33;;;;;;;47.35;27.27;;;;;;;0.55;71.42;96757.72;1699569;84;25429;-71
2022/04/21 04:04:00;;;;;;;53.80;30.55;;;;;;;0.60;71.55;96755.91;1632873;87;25843;-72
2022/04/21 04:11:56;;;;;;;79.60;44.55;;;;;;;0.61;71.89;96761.02;1633188;87;28276;-73
2022/04/21 04:14:22;;;;;;;77.95;43.52;;;;;;;0.56;72.04;96758.05;1632928;87;25905;-72
2022/04/21 04:16:49;;;;;;;76.70;41.75;;;;;;;0.58;72.12;96756.56;1632909;87;25883;-72
2022/04/21 04:19:16;;;;;;;66.62;37.10;;;;;;;0.62;72.19;96761.36;1633029;87;25684;-72
2022/04/21 04:21:43;;;;;;;71.60;35.90;;;;;;;0.67;72.15;96759.05;1632937;87;25759;-72
2022/04/21 04:24:09;;;;;;;69.42;36.42;;;;;;;0.72;72.12;96750.59;1633074;87;27497;-72
2022/04/21 04:26:36;;;;;;;65.60;34.40;;;;;;;0.75;72.02;96750.23;1632994;87;25824;-72
2022/04/21 04:29:03;;;;;;;60.03;33.88;;;;;;;0.79;72.04;96747.59;1679058;84;25361;-72
2022/04/21 04:31:31;;;;;;;53.17;32.45;;;;;;;0.77;72.02;96757.55;1699319;84;26247;-71
2022/04/21 04:33:58;;;;;;;59.77;33.78;;;;;;;0.75;72.00;96758.21;1699643;84;26000;-72
2022/04/21 04:36:24;;;;;;;54.48;33.42;;;;;;;0.75;72.04;96758.70;1699561;84;28160;-72
2022/04/21 04:38:51;;;;;;;62.48;35.70;;;;;;;0.75;72.09;96756.88;1699366;84;25778;-71
2022/04/21 04:44:03;;;;;;;58.17;34.15;;;;;;;0.79;72.15;96759.55;1699329;84;25769;-73
2022/04/21 04:46:37;;;;;;;65.70;35.13;;;;;;;0.83;72.23;96757.40;1699429;84;25785;-72
2022/04/21 04:49:09;;;;;;;60.60;35.52;;;;;;;0.86;72.28;96763.19;1699570;84;27410;-72
2022/04/21 04:51:41;;;;;;;65.95;35.83;;;;;;;0.90;72.38;96760.54;1699516;84;25832;-72
2022/04/21 04:54:09;;;;;;;70.17;37.00;;;;;;;0.94;72.40;96759.22;1642079;87;25849;-71
2022/04/21 04:56:37;;;;;;;65.17;36.50;;;;;;;0.99;72.48;96760.02;1642280;87;26486;-72
2022/04/21 04:59:04;;;;;;;84.75;39.98;;;;;;;1.03;72.52;96760.86;1641997;87;25794;-72
2022/04/21 05:01:41;;;;;;;73.37;36.93;;;;;;;1.09;72.55;96762.00;1642060;85;27502;-71
2022/04/21 05:04:14;;;;;;;67.55;37.65;;;;;;;1.14;72.53;96762.34;1657943;86;25811;-73
2022/04/21 05:06:49;;;;;;;71.22;37.28;;;;;;;1.19;72.38;96756.53;1657847;86;25705;-72
2022/04/21 05:09:21;;;;;;;66.53;36.88;;;;;;;1.23;72.35;96758.66;1658147;86;25760;-72
2022/04/21 05:11:52;;;;;;;67.87;35.55;;;;;;;1.30;72.35;96762.83;1658199;86;25780;-71
2022/04/21 05:14:21;;;;;;;69.60;35.55;;;;;;;1.36;72.26;96770.11;1658214;86;27453;-72
2022/04/21 05:16:48;;;;;;;63.87;34.83;;;;;;;1.41;72.23;96769.12;1658088;86;25809;-71
2022/04/21 05:19:19;;;;;;;63.50;34.50;;;;;;;1.45;72.26;96771.25;1658127;86;25856;-72
2022/04/21 05:21:47;;;;;;;62.78;35.28;;;;;;;1.50;72.35;96769.42;1658135;86;25839;-71
2022/04/21 05:24:15;;;;;;;65.00;35.92;;;;;;;1.55;72.34;96767.09;1658404;86;25723;-73
2022/04/21 05:26:43;;;;;;;61.37;33.65;;;;;;;1.63;72.34;96764.39;1658266;86;27395;-71
2022/04/21 05:32:04;;;;;;;53.68;32.98;;;;;;;1.79;72.29;96755.03;1658017;86;26124;-72
2022/04/21 05:34:32;;;;;;;52.17;32.63;;;;;;;1.84;72.35;96755.00;1658220;86;25814;-72
2022/04/21 05:37:01;;;;;;;52.65;32.10;;;;;;;1.94;72.38;96748.95;1658063;86;25857;-71
2022/04/21 05:39:30;;;;;;;53.28;33.13;;;;;;;2.03;72.29;96755.42;1658112;86;27453;-71
2022/04/21 05:41:58;;;;;;;50.63;29.67;;;;;;;2.10;72.14;96759.53;1660393;85;25872;-72
2022/04/21 05:44:27;;;;;;;52.55;30.92;;;;;;;2.13;72.05;96764.52;1669552;85;25947;-71
2022/04/21 05:46:54;;;;;;;54.73;31.70;;;;;;;2.18;72.00;96762.14;1669914;85;25803;-72
2022/04/21 05:49:21;;;;;;;52.17;31.35;;;;;;;2.25;71.93;96755.14;1669856;85;25831;-71
2022/04/21 05:51:48;;;;;;;58.70;31.82;;;;;;;2.35;71.85;96757.57;1669867;84;27375;-73
2022/04/21 05:54:16;;;;;;;54.45;30.25;;;;;;;2.42;71.83;96756.68;1669842;84;25467;-72
2022/04/21 05:56:44;;;;;;;53.05;31.25;;;;;;;2.49;71.73;96749.66;1675230;84;25732;-71
2022/04/21 05:59:10;;;;;;;49.98;30.72;;;;;;;2.59;71.63;96749.92;1699459;84;25845;-73
2022/04/21 06:01:37;;;;;;;56.98;31.55;;;;;;;2.68;71.62;96751.51;1722220;82;25500;-72
2022/04/21 06:04:03;;;;;;;51.68;30.12;;;;;;;2.75;71.47;96756.47;1729858;82;27351;-72
2022/04/21 06:06:30;;;;;;;49.42;30.88;;;;;;;2.81;71.31;96761.08;1729664;81;25657;-72
2022/04/21 06:08:57;;;;;;;44.63;29.30;;;;;;;2.88;71.22;96756.70;1729786;82;25655;-73
2022/04/21 06:11:24;;;;;;;44.98;28.73;;;;;;;2.97;71.06;96759.62;1729740;82;25670;-71
2022/04/21 06:13:51;;;;;;;47.13;28.27;;;;;;;3.04;70.99;96761.87;1729834;82;25761;-72
2022/04/21 06:16:17;;;;;;;46.37;27.65;;;;;;;3.11;70.97;96759.34;1729254;82;27549;-71
2022/04/21 06:18:44;;;;;;;44.77;27.75;;;;;;;3.14;70.75;96756.31;1694118;83;25632;-72
2022/04/21 06:21:11;;;;;;;46.42;27.52;;;;;;;3.21;70.66;96755.40;1669319;85;25249;-72
2022/04/21 06:23:37;;;;;;;40.85;27.67;;;;;;;3.31;70.55;96755.64;1668915;85;25776;-72
2022/04/21 06:26:04;;;;;;;45.50;29.75;;;;;;;3.39;70.45;96763.55;1677201;85;25456;-73
2022/04/21 06:28:34;;;;;;;50.15;28.98;;;;;;;3.43;70.46;96761.68;1677255;85;27375;-72
2022/04/21 06:31:00;;;;;;;47.75;28.38;;;;;;;3.50;70.43;96761.80;1669276;85;25780;-72
2022/04/21 06:33:31;;;;;;;49.30;27.65;;;;;;;3.59;70.45;96760.70;1677239;85;25748;-71
2022/04/21 06:35:59;;;;;;;49.20;28.25;;;;;;;3.62;70.34;96763.00;1677092;85;26385;-72
2022/04/21 06:38:26;;;;;;;43.63;26.07;;;;;;;3.70;70.23;96765.57;1669150;85;25519;-71
2022/04/21 06:40:52;;;;;;;40.55;22.45;;;;;;;3.79;70.16;96756.45;1669468;85;28186;-71
2022/04/21 06:48:49;;;;;;;39.45;25.15;;;;;;;4.05;69.92;96753.81;1667114;86;26515;-71
2022/04/21 06:51:18;;;;;;;43.30;26.15;;;;;;;4.12;69.62;96753.37;1667082;86;25502;-72
2022/04/21 06:53:44;;;;;;;39.42;26.20;;;;;;;4.18;69.52;96753.97;1667034;86;26906;-71
2022/04/21 06:56:11;;;;;;;40.20;26.52;;;;;;;4.27;69.53;96755.52;1667038;86;25979;-72
2022/04/21 06:58:39;;;;;;;39.75;26.65;;;;;;;4.36;69.42;96750.37;1667147;86;25744;-73
2022/04/21 07:01:05;;;;;;;48.55;26.33;;;;;;;4.41;69.38;96750.64;1666882;86;26461;-72
2022/04/21 07:03:33;;;;;;;45.15;26.42;;;;;;;4.54;69.37;96745.45;1667130;85;25733;-72
2022/04/21 07:06:00;;;;;;;49.53;29.20;;;;;;;4.67;69.12;96747.43;1667114;85;27433;-72
2022/04/21 07:08:27;;;;;;;46.83;27.77;;;;;;;4.77;69.10;96739.91;1667041;86;25707;-72
2022/04/21 07:10:54;;;;;;;43.38;27.93;;;;;;;4.87;69.20;96744.42;1667306;86;25727;-72
2022/04/21 07:13:21;;;;;;;43.40;26.70;;;;;;;4.98;68.96;96747.09;1667184;85;25778;-72
2022/04/21 07:15:48;;;;;;;44.90;27.05;;;;;;;5.05;68.91;96743.98;1667130;86;25668;-72
2022/04/21 07:18:14;;;;;;;42.20;27.40;;;;;;;5.18;68.78;96741.42;1667191;86;27536;-72
2022/04/21 07:20:41;;;;;;;43.85;27.58;;;;;;;5.26;68.51;96744.45;1666990;86;25847;-72
2022/04/21 07:23:07;;;;;;;43.33;27.17;;;;;;;5.33;68.59;96744.81;1667241;86;25260;-72
2022/04/21 07:25:34;;;;;;;42.38;26.75;;;;;;;5.44;68.10;96752.30;1667061;86;25764;-72
2022/04/21 07:28:01;;;;;;;44.90;28.05;;;;;;;5.46;67.96;96750.77;1667149;85;25734;-72
2022/04/21 07:30:27;;;;;;;43.60;27.32;;;;;;;5.54;68.03;96747.97;1667254;86;28018;-73
2022/04/21 07:32:54;;;;;;;46.42;27.05;;;;;;;5.66;67.96;96745.57;1666988;86;25488;-72
2022/04/21 07:35:20;;;;;;;44.83;27.70;;;;;;;5.77;68.01;96748.52;1667121;86;25760;-72
2022/04/21 07:37:47;;;;;;;42.08;27.67;;;;;;;5.93;67.65;96749.23;1667173;86;25841;-73
2022/04/21 07:40:14;;;;;;;41.77;27.98;;;;;;;6.00;67.29;96745.58;1667123;86;25670;-72
2022/04/21 07:42:40;;;;;;;42.85;26.68;;;;;;;6.08;67.17;96745.41;1667554;84;28108;-72
2022/04/21 07:45:08;;;;;;;42.75;27.00;;;;;;;6.19;67.19;96753.89;1669213;85;26111;-73
2022/04/21 07:47:34;;;;;;;41.73;26.55;;;;;;;6.28;66.95;96752.72;1718670;83;25709;-72
2022/04/21 07:50:01;;;;;;;41.40;26.15;;;;;;;6.38;66.63;96753.17;1718659;83;25891;-72
2022/04/21 07:55:18;;;;;;;40.03;25.15;;;;;;;6.58;65.95;96750.54;1718428;82;27573;-73
2022/04/21 07:57:47;;;;;;;39.95;26.87;;;;;;;6.65;65.84;96753.54;1718641;83;25993;-73
2022/04/21 08:00:16;;;;;;;39.92;25.88;;;;;;;6.77;65.73;96753.77;1686237;85;25792;-72
2022/04/21 08:02:46;;;;;;;40.10;26.25;;;;;;;6.82;65.46;96753.48;1661749;85;25843;-73
2022/04/21 08:05:16;;;;;;;32.80;23.83;;;;;;;6.92;65.39;96760.30;1718783;83;25802;-73
2022/04/21 08:07:44;;;;;;;34.88;23.15;;;;;;;7.01;64.92;96756.39;1686396;85;27389;-72
2022/04/21 08:10:13;;;;;;;33.92;23.35;;;;;;;7.02;64.90;96755.36;1661736;86;25697;-73
2022/04/21 08:12:46;;;;;;;36.53;23.55;;;;;;;7.08;64.71;96753.22;1718611;83;25782;-72
2022/04/21 08:15:17;;;;;;;38.80;22.98;;;;;;;7.16;64.80;96757.03;1615051;87;26554;-72
2022/04/21 08:17:44;;;;;;;30.62;21.93;;;;;;;7.22;64.67;96751.69;1650121;86;25284;-72
2022/04/21 08:20:11;;;;;;;30.88;21.85;;;;;;;7.35;64.63;96756.75;1653541;86;27611;-72
2022/04/21 08:22:39;;;;;;;39.23;22.65;;;;;;;7.47;64.27;96755.09;1653625;86;25825;-73
2022/04/21 08:33:22;;;;;;;37.10;24.60;;;;;;;7.87;63.49;96750.47;1653406;86;26920;-73
2022/04/21 08:35:50;;;;;;;34.18;23.07;;;;;;;7.98;63.57;96743.09;1653419;86;25402;-72
2022/04/21 08:38:18;;;;;;;32.03;22.35;;;;;;;8.12;63.16;96744.71;1653637;86;25812;-72
2022/04/21 08:40:53;;;;;;;34.18;22.42;;;;;;;8.18;62.89;96739.02;1653662;86;25764;-73
2022/04/21 08:43:21;;;;;;;30.70;22.17;;;;;;;8.28;62.80;96736.19;1653294;86;25926;-73
2022/04/21 08:45:50;;;;;;;32.42;21.35;;;;;;;8.39;62.49;96733.89;1653468;86;28384;-74
2022/04/21 08:48:20;;;;;;;30.23;20.97;;;;;;;8.52;62.38;96739.21;1653510;86;25962;-73
2022/04/21 08:50:47;;;;;;;31.40;21.15;;;;;;;8.64;62.02;96734.28;1653647;86;25900;-73
2022/04/21 08:53:17;;;;;;;32.13;20.70;;;;;;;8.74;61.49;96732.47;1653623;86;25782;-72
2022/04/21 08:55:44;;;;;;;30.43;21.12;;;;;;;8.80;61.31;96726.75;1653292;86;25894;-73
2022/04/21 08:58:11;;;;;;;26.87;20.72;;;;;;;8.91;61.05;96728.23;1653246;86;27335;-73
2022/04/21 09:00:39;;;;;;;30.02;21.25;;;;;;;9.05;60.75;96725.45;1653477;86;25618;-72
2022/04/21 09:03:08;;;;;;;28.90;20.23;;;;;;;9.16;60.67;96723.41;1653527;86;25806;-72
2022/04/21 09:05:35;;;;;;;27.65;20.05;;;;;;;9.28;60.45;96729.20;1653607;86;25806;-72
2022/04/21 09:08:03;;;;;;;26.82;20.50;;;;;;;9.40;60.09;96721.23;1653770;86;25916;-73
2022/04/21 09:10:32;;;;;;;31.60;21.87;;;;;;;9.53;59.89;96725.16;1653801;86;27545;-72
2022/04/21 09:13:02;;;;;;;23.38;18.42;;;;;;;9.67;60.27;96725.31;1710482;82;25690;-73
2022/04/21 09:15:32;;;;;;;28.05;19.05;;;;;;;9.83;59.62;96723.92;1686590;84;25974;-72
2022/04/21 09:18:08;;;;;;;26.60;18.42;;;;;;;10.00;59.09;96717.43;1686600;85;25732;-72
2022/04/21 09:20:39;;;;;;;25.32;18.50;;;;;;;10.09;58.53;96718.25;1589649;89;25855;-73
2022/04/21 09:23:11;;;;;;;27.48;18.48;;;;;;;10.20;58.22;96711.83;1630213;88;27341;-73
2022/04/21 09:25:50;;;;;;;22.67;17.70;;;;;;;10.32;58.71;96718.94;1662808;86;25885;-73
2022/04/21 09:28:32;;;;;;;24.47;16.90;;;;;;;10.41;57.52;96712.70;1662676;86;25944;-72
2022/04/21 09:31:01;;;;;;;24.07;18.17;;;;;;;10.57;57.17;96709.91;1663108;86;25757;-73
2022/04/21 09:33:34;;;;;;;23.67;16.40;;;;;;;10.65;57.44;96697.44;1662596;86;26609;-73
2022/04/21 09:36:06;;;;;;;18.40;14.07;;;;;;;10.83;56.88;96702.80;1662873;86;27401;-72
2022/04/21 09:38:36;;;;;;;20.23;14.90;;;;;;;11.03;56.61;96706.02;1662846;86;25898;-72
2022/04/21 09:41:10;;;;;;;19.75;15.48;;;;;;;11.12;55.82;96698.40;1662696;86;26307;-72
2022/04/21 09:43:39;;;;;;;23.40;15.85;;;;;;;11.11;56.17;96707.55;1662474;86;25756;-73
2022/04/21 09:46:17;;;;;;;22.22;14.90;;;;;;;11.18;55.26;96701.02;1662778;86;26075;-73
2022/04/21 09:48:48;;;;;;;20.85;14.30;;;;;;;11.17;55.20;96693.96;1571916;91;27513;-73
2022/04/21 09:51:17;;;;;;;18.02;14.23;;;;;;;11.36;55.26;96689.80;1572061;91;25830;-73
2022/04/21 09:54:00;;;;;;;21.25;13.32;;;;;;;11.52;54.52;96694.53;1571995;91;25882;-73
2022/04/21 09:56:35;;;;;;;22.35;13.85;;;;;;;11.71;54.05;96686.58;1572068;91;26503;-73
2022/04/21 09:59:08;;;;;;;15.40;12.70;;;;;;;11.83;53.04;96687.42;1572239;91;25921;-73
2022/04/21 10:01:38;;;;;;;16.07;11.53;;;;;;;11.90;52.69;96681.38;1572024;91;27759;-73
2022/04/21 10:04:11;;;;;;;15.15;10.88;;;;;;;11.97;52.83;96673.66;1571652;91;25870;-73
2022/04/21 10:06:39;;;;;;;17.35;11.88;;;;;;;12.14;52.52;96678.64;1571987;91;25873;-73
2022/04/21 10:09:07;;;;;;;14.23;11.43;;;;;;;12.40;52.27;96676.75;1571991;91;26729;-72
2022/04/21 10:11:37;;;;;;;16.02;12.65;;;;;;;12.57;51.93;96675.44;1572042;91;25936;-73
2022/04/21 10:14:06;;;;;;;16.82;13.18;;;;;;;12.77;51.85;96673.66;1571965;91;27531;-73
2022/04/21 10:16:33;;;;;;;13.13;10.88;;;;;;;12.99;51.73;96671.89;1578592;88;25815;-73
2022/04/21 10:19:02;;;;;;;18.32;11.28;;;;;;;13.44;51.61;96666.97;1614859;88;25861;-74
2022/04/21 10:21:48;;;;;;;12.58;10.43;;;;;;;13.74;51.27;96667.98;1613440;88;25810;-73
2022/04/21 10:24:23;;;;;;;15.05;11.03;;;;;;;13.91;50.25;96664.68;1603367;89;25792;-73
2022/04/21 10:26:51;;;;;;;12.65;10.82;;;;;;;13.69;49.86;96666.00;1601857;89;28227;-73
2022/04/21 10:29:23;;;;;;;12.75;9.75;;;;;;;13.77;49.63;96660.14;1601170;89;25969;-73
2022/04/21 10:31:59;;;;;;;12.05;8.23;;;;;;;14.05;49.63;96663.25;1601220;89;25855;-73
2022/04/21 10:34:46;;;;;;;9.85;8.33;;;;;;;14.20;48.17;96655.84;1601112;89;26413;-73
2022/04/21 10:37:20;;;;;;;9.35;7.08;;;;;;;13.96;48.43;96658.80;1536045;93;25857;-73
2022/04/21 10:42:57;;;;;;;11.48;8.18;;;;;;;13.80;47.55;96659.65;1492194;96;25935;-73
2022/04/21 10:45:27;;;;;;;9.13;7.35;;;;;;;13.80;47.94;96656.94;1510247;93;25846;-73
2022/04/21 10:48:15;;;;;;;12.07;8.40;;;;;;;13.77;47.38;96658.78;1537064;93;26563;-73
2022/04/21 10:50:45;;;;;;;14.60;9.75;;;;;;;13.70;47.11;96664.94;1537190;93;25884;-74
2022/04/21 10:59:06;;;;;;;11.68;9.23;;;;;;;13.19;47.38;96660.59;1537124;93;25850;-73
2022/04/21 11:01:33;;;;;;;12.25;9.80;;;;;;;13.13;47.42;96658.32;1552852;92;25865;-73
2022/04/21 11:04:10;;;;;;;14.70;11.48;;;;;;;13.17;48.29;96655.42;1558699;92;25834;-73
2022/04/21 11:06:41;;;;;;;13.75;10.85;;;;;;;13.21;48.23;96657.94;1483004;96;28552;-73
2022/04/21 11:09:08;;;;;;;13.55;10.20;;;;;;;13.22;48.19;96662.83;1480374;96;25883;-73
2022/04/21 11:11:47;;;;;;;14.68;11.18;;;;;;;13.21;48.24;96664.71;1480448;96;25918;-73
2022/04/21 11:14:29;;;;;;;15.40;10.93;;;;;;;13.06;47.75;96669.83;1480454;96;25912;-73
2022/04/21 11:16:57;;;;;;;13.53;11.53;;;;;;;13.02;47.98;96665.98;1480407;96;25868;-73
2022/04/21 11:19:36;;;;;;;16.02;10.58;;;;;;;13.24;48.17;96666.11;1480086;96;28286;-73
2022/04/21 11:22:10;;;;;;;15.72;12.18;;;;;;;13.39;48.25;96666.37;1480317;96;25856;-73
2022/04/21 11:25:03;;;;;;;14.00;10.78;;;;;;;13.34;47.98;96652.72;1469420;96;25956;-73
2022/04/21 11:27:32;;;;;;;12.25;10.35;;;;;;;13.31;47.74;96656.74;1447702;99;26116;-73
2022/04/21 11:30:09;;;;;;;14.53;10.08;;;;;;;13.48;47.77;96647.79;1446671;99;25791;-74
2022/04/21 11:32:35;;;;;;;14.43;9.88;;;;;;;13.68;47.73;96646.73;1447041;99;28146;-72
2022/04/21 11:35:12;;;;;;;11.60;9.68;;;;;;;13.76;47.39;96647.68;1480867;96;25998;-74
2022/04/21 11:37:57;;;;;;;12.65;10.13;;;;;;;13.91;47.45;96654.65;1482694;96;25853;-73
2022/04/21 11:40:36;;;;;;;11.50;9.83;;;;;;;14.13;46.85;96641.66;1526956;93;26478;-74
2022/04/21 11:43:16;;;;;;;10.98;9.65;;;;;;;14.32;46.72;96649.22;1540337;90;26013;-74
2022/04/21 11:46:00;;;;;;;13.05;9.80;;;;;;;14.57;46.97;96640.58;1579776;90;27473;-73
2022/04/21 11:48:40;;;;;;;15.83;10.13;;;;;;;14.95;47.61;96648.30;1582511;89;25686;-74
2022/04/21 11:51:12;;;;;;;11.18;9.53;;;;;;;15.21;46.23;96650.17;1579964;90;25864;-74
2022/04/21 11:53:41;;;;;;;11.65;9.55;;;;;;;15.15;46.04;96648.48;1580309;90;26571;-73
2022/04/21 11:56:10;;;;;;;10.55;9.25;;;;;;;15.10;45.35;96642.45;1580030;90;25804;-74
2022/04/21 11:58:41;;;;;;;11.05;9.50;;;;;;;15.01;45.83;96635.84;1623005;88;28217;-73
2022/04/21 12:06:56;;;;;;;12.70;9.73;;;;;;;15.28;44.86;96627.66;1624391;87;25809;-74
2022/04/21 12:09:28;;;;;;;11.20;9.03;;;;;;;15.17;44.02;96634.09;1572352;91;25672;-73
2022/04/21 12:12:00;;;;;;;13.28;10.08;;;;;;;15.13;45.11;96632.96;1579054;88;27455;-73
2022/04/21 12:14:28;;;;;;;12.05;10.13;;;;;;;15.41;44.76;96628.58;1598904;88;25889;-74
2022/04/21 12:17:01;;;;;;;11.53;10.15;;;;;;;15.52;44.55;96621.84;1598645;89;25871;-74
2022/04/21 12:19:46;;;;;;;13.35;10.13;;;;;;;15.45;44.00;96618.83;1598508;88;43852;-74
2022/04/21 12:22:16;;;;;;;12.28;10.08;;;;;;;15.46;43.91;96616.36;1598522;89;26903;-73
2022/04/21 12:24:48;;;;;;;12.05;9.68;;;;;;;15.59;43.95;96623.82;1598731;89;27627;-73
2022/04/21 12:27:34;;;;;;;12.15;9.33;;;;;;;15.40;44.00;96620.14;1598811;88;28115;-74
2022/04/21 12:30:06;;;;;;;12.63;9.63;;;;;;;15.53;44.49;96620.77;1598684;89;25880;-74
2022/04/21 12:32:38;;;;;;;10.30;8.65;;;;;;;15.74;43.64;96610.32;1598467;88;25852;-73
2022/04/21 12:35:09;;;;;;;9.68;8.38;;;;;;;15.68;42.61;96601.87;1598853;89;25872;-74
2022/04/21 12:37:39;;;;;;;12.98;9.85;;;;;;;15.44;42.61;96604.13;1598965;88;27538;-74